Time;durP1;ratioP1;P1;durP2;ratioP2;P2;SDS_P1;SDS_P2;PMS_P1;PMS_P2;Temp;Humidity;BMP_temperature;BMP_pressure;BME280_temperature;BME280_humidity;BME280_pressure;Samples;Min_cycle;Max_cycle;Signal;HPM_P1;HPM_P2
2021/03/13 00:01:16;;;;;;;7.17;2.60;;;;;;;-3.99;100.00;100201.11;1846777;75;26895;-75
2021/03/13 00:03:45;;;;;;;4.30;2.83;;;;;;;-3.99;100.00;100204.23;1816757;79;20917;-76
2021/03/13 00:06:14;;;;;;;4.83;2.47;;;;;;;-3.99;100.00;100193.19;1816862;79;20996;-75
2021/03/13 00:08:42;;;;;;;2.57;2.37;;;;;;;-3.98;100.00;100193.59;1817235;79;21039;-75
2021/03/13 00:11:12;;;;;;;3.57;2.77;;;;;;;-4.01;100.00;100184.02;1818208;79;21389;-75
2021/03/13 00:13:40;;;;;;;6.00;3.73;;;;;;;-4.00;100.00;100186.21;1818149;79;21016;-76
2021/03/13 00:16:09;;;;;;;3.57;2.13;;;;;;;-4.01;100.00;100183.16;1818072;79;20924;-74
2021/03/13 00:18:38;;;;;;;8.33;3.93;;;;;;;-4.01;100.00;100163.36;1817972;79;21368;-76
2021/03/13 00:21:06;;;;;;;5.63;3.33;;;;;;;-3.99;100.00;100162.81;1818028;77;20932;-75
2021/03/13 00:23:34;;;;;;;3.33;1.93;;;;;;;-3.99;100.00;100162.81;1818394;79;20972;-75
2021/03/13 00:26:02;;;;;;;4.00;3.13;;;;;;;-3.97;100.00;100155.66;1818119;79;21059;-74
2021/03/13 00:28:30;;;;;;;4.37;3.77;;;;;;;-3.95;100.00;100147.66;1818222;79;20984;-75
2021/03/13 00:30:59;;;;;;;7.30;3.63;;;;;;;-3.96;100.00;100148.14;1818172;77;21098;-74
2021/03/13 00:33:30;;;;;;;4.43;3.13;;;;;;;-3.95;100.00;100147.19;1818057;79;21055;-74
2021/03/13 00:35:57;;;;;;;3.53;2.40;;;;;;;-3.94;100.00;100133.53;1817429;79;21020;-75
2021/03/13 00:38:26;;;;;;;4.27;2.90;;;;;;;-3.94;100.00;100151.55;1817897;79;20965;-75
2021/03/13 00:40:54;;;;;;;5.37;2.27;;;;;;;-3.93;100.00;100144.47;1817933;79;20921;-75
2021/03/13 00:43:21;;;;;;;3.03;2.73;;;;;;;-3.92;100.00;100143.55;1817441;79;21267;-75
2021/03/13 00:45:50;;;;;;;2.43;2.23;;;;;;;-3.90;100.00;100152.25;1817827;79;21015;-76
2021/03/13 00:48:18;;;;;;;6.60;3.30;;;;;;;-3.89;100.00;100150.02;1817885;79;20976;-76
2021/03/13 00:50:47;;;;;;;3.40;3.07;;;;;;;-3.88;100.00;100148.63;1817809;79;20960;-74
2021/03/13 00:53:15;;;;;;;6.43;3.17;;;;;;;-3.87;100.00;100149.47;1817333;77;21056;-76
2021/03/13 00:55:44;;;;;;;6.57;3.30;;;;;;;-3.85;100.00;100142.31;1817227;79;21624;-75
2021/03/13 00:58:14;;;;;;;2.83;2.43;;;;;;;-3.85;100.00;100149.77;1813110;79;21031;-74
2021/03/13 01:00:44;;;;;;;4.57;2.37;;;;;;;-3.83;100.00;100143.09;1701134;82;20941;-76
2021/03/13 01:03:13;;;;;;;6.07;3.20;;;;;;;-3.85;100.00;100138.35;1700602;84;21079;-77
2021/03/13 01:05:50;;;;;;;12.58;4.75;;;;;;;-3.79;100.00;100145.11;1832055;76;27777;-75
2021/03/13 01:08:18;;;;;;;5.17;2.93;;;;;;;-3.80;100.00;100149.55;1817795;79;21047;-74
2021/03/13 01:10:49;;;;;;;4.73;2.93;;;;;;;-3.78;100.00;100146.83;1817761;78;21325;-74
2021/03/13 01:13:21;;;;;;;6.20;3.23;;;;;;;-3.77;100.00;100151.17;1817674;79;20944;-76
2021/03/13 01:15:51;;;;;;;;;;;;;;;-3.78;100.00;100145.04;1820096;79;20878;-74
2021/03/13 01:18:20;;;;;;;6.10;2.60;;;;;;;-3.78;100.00;100150.80;1817584;79;20144;-74
2021/03/13 01:20:50;;;;;;;6.77;4.20;;;;;;;-3.80;100.00;100144.27;1785880;77;20893;-74
2021/03/13 01:23:19;;;;;;;4.83;3.23;;;;;;;-3.81;100.00;100141.22;1817278;79;21343;-74
2021/03/13 01:25:48;;;;;;;4.13;3.37;;;;;;;-3.80;100.00;100146.06;1817930;79;20909;-75
2021/03/13 01:28:16;;;;;;;6.30;4.07;;;;;;;-3.78;100.00;100138.91;1817929;78;21055;-74
2021/03/13 01:30:46;;;;;;;5.83;3.30;;;;;;;-3.77;100.00;100147.20;1812664;79;21003;-75
2021/03/13 01:33:14;;;;;;;3.97;2.57;;;;;;;-3.79;100.00;100139.83;1817005;77;20964;-75
2021/03/13 01:35:42;;;;;;;7.20;3.43;;;;;;;-3.80;100.00;100154.84;1821740;78;21750;-76
2021/03/13 01:38:10;;;;;;;7.50;3.57;;;;;;;-3.79;100.00;100159.64;1836759;78;20952;-75
2021/03/13 01:40:39;;;;;;;7.20;3.57;;;;;;;-3.78;100.00;100148.16;1836885;77;20970;-74
2021/03/13 01:43:09;;;;;;;8.73;3.70;;;;;;;-3.79;100.00;100145.11;1827444;77;21051;-74
2021/03/13 01:45:38;;;;;;;4.27;3.03;;;;;;;-3.79;100.00;100147.75;1815827;79;21545;-75
2021/03/13 01:48:07;;;;;;;4.73;3.77;;;;;;;-3.81;100.00;100149.14;1815681;78;21650;-75
2021/03/13 01:50:35;;;;;;;5.13;3.83;;;;;;;-3.82;100.00;100150.94;1815734;79;20992;-75
2021/03/13 01:53:04;;;;;;;5.53;3.67;;;;;;;-3.82;100.00;100152.73;1805100;78;20978;-75
2021/03/13 01:55:33;;;;;;;2.90;2.70;;;;;;;-3.81;100.00;100157.08;1826208;78;21001;-74
2021/03/13 01:58:03;;;;;;;4.53;2.90;;;;;;;-3.83;100.00;100157.62;1825909;78;21044;-74
2021/03/13 02:00:32;;;;;;;6.77;3.97;;;;;;;-3.82;100.00;100161.52;1825905;77;21253;-75
2021/03/13 02:03:03;;;;;;;5.30;4.10;;;;;;;-3.80;100.00;100169.36;1826077;78;21578;-76
2021/03/13 02:05:37;;;;;;;4.80;3.20;;;;;;;-3.81;100.00;100168.96;1825888;77;20911;-74
2021/03/13 02:08:43;;;;;;;6.37;4.20;;;;;;;-3.82;100.00;100170.76;1766626;80;21134;-75
2021/03/13 02:11:29;;;;;;;6.10;3.67;;;;;;;-3.82;100.00;100175.20;1753179;81;21251;-75
2021/03/13 02:14:30;;;;;;;5.03;3.73;;;;;;;-3.80;100.00;100166.72;1852573;76;25795;-75
2021/03/13 02:17:21;;;;;;;4.70;3.63;;;;;;;-3.87;100.00;100168.81;1731318;82;20925;-75
2021/03/13 02:20:34;;;;;;;4.23;3.10;;;;;;;-3.84;100.00;100167.34;1845927;76;24065;-76
2021/03/13 02:23:10;;;;;;;;;;;;;;;-3.88;100.00;100184.29;1818585;78;21044;-75
2021/03/13 02:26:23;;;;;;;8.43;4.60;;;;;;;-3.88;100.00;100190.02;1816168;79;21640;-75
2021/03/13 02:29:52;;;;;;;5.27;3.07;;;;;;;-3.90;100.00;100180.00;1740217;82;20934;-75
2021/03/13 02:32:57;;;;;;;3.83;3.40;;;;;;;-3.90;100.00;100180.00;1851450;77;25273;-75
2021/03/13 02:35:40;;;;;;;6.70;4.10;;;;;;;-3.94;100.00;100183.25;1758346;81;21024;-75
2021/03/13 02:38:14;;;;;;;9.10;4.73;;;;;;;-3.94;100.00;100171.84;1723377;83;21435;-76
2021/03/13 02:40:49;;;;;;;4.07;3.33;;;;;;;-3.91;100.00;100176.51;1890660;76;25913;-75
2021/03/13 02:43:17;;;;;;;5.87;3.70;;;;;;;-3.96;100.00;100168.42;1846434;77;20977;-75
2021/03/13 02:45:48;;;;;;;5.63;3.87;;;;;;;-3.95;100.00;100178.04;1686467;81;21693;-75
2021/03/13 02:48:17;;;;;;;2.67;2.43;;;;;;;-3.95;100.00;100170.96;1794454;79;20990;-75
2021/03/13 02:50:46;;;;;;;6.23;3.90;;;;;;;-3.96;100.00;100164.46;1804830;79;20965;-74
2021/03/13 02:53:16;;;;;;;9.07;4.20;;;;;;;-3.95;100.00;100168.80;1829570;78;20930;-75
2021/03/13 02:55:47;;;;;;;6.30;4.07;;;;;;;-3.96;100.00;100161.82;1804763;79;20965;-76
2021/03/13 02:58:16;;;;;;;6.23;4.07;;;;;;;-3.95;100.00;100163.04;1829555;78;21201;-75
2021/03/13 03:00:44;;;;;;;4.43;3.33;;;;;;;-3.94;100.00;100159.48;1804608;79;20953;-75
2021/03/13 03:03:15;;;;;;;9.33;4.63;;;;;;;-3.92;100.00;100156.77;1800135;78;21001;-75
2021/03/13 03:05:45;;;;;;;4.70;3.57;;;;;;;-3.91;100.00;100158.02;1737195;81;20961;-75
2021/03/13 03:08:13;;;;;;;3.87;2.90;;;;;;;-3.90;100.00;100158.86;1792835;80;21229;-76
2021/03/13 03:10:43;;;;;;;8.73;4.70;;;;;;;-3.88;100.00;100154.35;1761725;81;21393;-76
2021/03/13 03:13:12;;;;;;;11.07;5.07;;;;;;;-3.90;100.00;100150.94;1792695;80;21068;-74
2021/03/13 03:15:40;;;;;;;6.40;3.83;;;;;;;-3.90;100.00;100158.86;1767079;80;21013;-76
2021/03/13 03:18:14;;;;;;;7.47;3.80;;;;;;;-3.89;100.00;100154.83;1761653;81;21048;-75
2021/03/13 03:20:49;;;;;;;3.57;2.93;;;;;;;-3.84;100.00;100150.17;1810973;77;25763;-75
2021/03/13 03:23:18;;;;;;;4.83;3.53;;;;;;;-3.86;100.00;100165.69;1782387;80;20969;-75
2021/03/13 03:25:46;;;;;;;4.93;3.73;;;;;;;-3.86;100.00;100170.53;1782661;80;21794;-75
2021/03/13 03:28:16;;;;;;;5.87;4.50;;;;;;;-3.86;100.00;100171.85;1782887;80;21009;-74
2021/03/13 03:30:47;;;;;;;4.43;3.60;;;;;;;-3.85;100.00;100168.73;1759289;81;21585;-75
2021/03/13 03:33:16;;;;;;;11.33;5.43;;;;;;;-3.85;100.00;100168.73;1761205;81;20953;-73
2021/03/13 03:35:46;;;;;;;2.83;2.60;;;;;;;-3.84;100.00;100179.23;1746512;82;20981;-74
2021/03/13 03:38:16;;;;;;;6.43;4.10;;;;;;;-3.88;100.00;100175.05;1761801;81;21215;-75
2021/03/13 03:40:45;;;;;;;7.00;3.73;;;;;;;-3.85;100.00;100171.38;1734115;81;21012;-74
2021/03/13 03:43:20;;;;;;;8.00;5.27;;;;;;;-3.87;100.00;100174.09;1757894;81;21662;-75
2021/03/13 03:45:57;;;;;;;5.73;4.17;;;;;;;-3.85;100.00;100173.55;1845630;76;25040;-75
2021/03/13 03:48:27;;;;;;;;;;;;;;;-3.88;100.00;100171.52;1803905;78;21569;-75
2021/03/13 03:50:57;;;;;;;11.17;4.67;;;;;;;-3.88;100.00;100171.08;1750594;80;22760;-75
2021/03/13 03:53:34;;;;;;;6.03;4.07;;;;;;;-3.87;100.00;100175.89;1749724;80;21031;-74
2021/03/13 03:56:03;;;;;;;6.03;3.00;;;;;;;-3.88;100.00;100175.48;1703924;84;21041;-75
2021/03/13 03:58:38;;;;;;;5.73;4.17;;;;;;;-3.86;100.00;100178.91;1689042;85;21596;-76
2021/03/13 04:01:06;;;;;;;6.57;3.97;;;;;;;-3.85;100.00;100170.06;1703891;84;20985;-75
2021/03/13 04:03:38;;;;;;;8.63;3.90;;;;;;;-3.87;100.00;100170.13;1689141;85;22538;-75
2021/03/13 04:06:08;;;;;;;6.53;3.97;;;;;;;-3.88;100.00;100172.40;1703891;84;21084;-75
2021/03/13 04:08:38;;;;;;;10.03;4.13;;;;;;;-3.89;100.00;100170.67;1689128;85;21221;-75
2021/03/13 04:11:07;;;;;;;9.13;5.00;;;;;;;-3.90;100.00;100165.47;1703790;84;21306;-75
2021/03/13 04:13:35;;;;;;;8.40;4.80;;;;;;;-3.89;100.00;100166.71;1689203;85;21089;-74
2021/03/13 04:16:06;;;;;;;8.07;5.17;;;;;;;-3.89;100.00;100160.11;1704096;84;22152;-76
2021/03/13 04:18:34;;;;;;;6.33;4.37;;;;;;;-3.90;100.00;100163.67;1689129;85;21548;-75
2021/03/13 04:21:02;;;;;;;5.87;3.83;;;;;;;-3.92;100.00;100160.25;1680586;84;21032;-76
2021/03/13 04:23:31;;;;;;;4.07;2.80;;;;;;;-3.91;100.00;100160.66;1689157;83;21029;-76
2021/03/13 04:25:59;;;;;;;7.93;4.47;;;;;;;-3.90;100.00;100170.27;1703836;84;21103;-74
2021/03/13 04:28:27;;;;;;;4.37;3.70;;;;;;;-3.89;100.00;100165.39;1689114;85;21829;-75
2021/03/13 04:30:55;;;;;;;6.47;3.90;;;;;;;-3.90;100.00;100167.63;1703801;84;21099;-76
2021/03/13 04:33:23;;;;;;;3.77;3.33;;;;;;;-3.88;100.00;100158.31;1689123;85;21121;-75
2021/03/13 04:35:52;;;;;;;7.47;3.97;;;;;;;-3.89;100.00;100165.39;1703888;84;21036;-74
2021/03/13 04:38:21;;;;;;;4.53;3.23;;;;;;;-3.87;100.00;100162.20;1689130;85;21116;-75
2021/03/13 04:40:50;;;;;;;5.47;4.30;;;;;;;-3.86;100.00;100161.73;1680658;84;21211;-75
2021/03/13 04:43:20;;;;;;;5.73;4.23;;;;;;;-3.84;100.00;100165.17;1694911;82;21143;-75
2021/03/13 04:45:48;;;;;;;4.03;3.23;;;;;;;-3.83;100.00;100154.50;1781612;80;21561;-75
2021/03/13 04:48:17;;;;;;;6.20;3.97;;;;;;;-3.80;100.00;100152.66;1761988;80;21057;-75
2021/03/13 04:50:45;;;;;;;5.70;3.50;;;;;;;-3.78;100.00;100152.97;1699599;83;21057;-75
2021/03/13 04:53:12;;;;;;;5.60;3.67;;;;;;;-3.75;100.00;100148.86;1776380;79;21655;-76
2021/03/13 04:55:40;;;;;;;7.67;4.80;;;;;;;-3.73;100.00;100155.39;1773920;79;21027;-76
2021/03/13 04:58:09;;;;;;;9.57;4.63;;;;;;;-3.71;100.00;100162.30;1800095;78;21217;-75
2021/03/13 05:00:37;;;;;;;8.07;4.70;;;;;;;-3.70;100.00;100161.38;1800155;78;21559;-75
2021/03/13 05:03:06;;;;;;;9.27;4.13;;;;;;;-3.68;100.00;100155.53;1800108;79;20928;-76
2021/03/13 05:05:34;;;;;;;11.70;5.13;;;;;;;-3.65;100.00;100163.32;1800226;79;22341;-75
2021/03/13 05:08:04;;;;;;;8.03;4.30;;;;;;;-3.62;100.00;100157.86;1799928;78;21074;-76
2021/03/13 05:10:33;;;;;;;8.70;4.50;;;;;;;-3.57;100.00;100160.75;1800243;79;20960;-75
2021/03/13 05:13:02;;;;;;;7.83;4.33;;;;;;;-3.56;100.00;100155.39;1800078;79;21537;-75
2021/03/13 05:15:30;;;;;;;9.53;5.53;;;;;;;-3.53;100.00;100152.56;1800096;79;20943;-76
2021/03/13 05:17:58;;;;;;;7.10;4.43;;;;;;;-3.53;100.00;100147.75;1800187;79;22498;-75
2021/03/13 05:20:26;;;;;;;9.87;5.30;;;;;;;-3.52;100.00;100154.29;1799941;79;21023;-74
2021/03/13 05:22:55;;;;;;;8.60;4.57;;;;;;;-3.49;100.00;100163.84;1800192;79;20952;-74
2021/03/13 05:25:23;;;;;;;9.77;4.77;;;;;;;-3.48;100.00;100160.27;1800006;78;21003;-75
2021/03/13 05:27:51;;;;;;;11.30;5.60;;;;;;;-3.45;100.00;100165.41;1800056;79;20979;-75
2021/03/13 05:30:20;;;;;;;10.10;4.83;;;;;;;-3.45;100.00;100166.73;1799954;79;21235;-75
2021/03/13 05:32:48;;;;;;;7.03;4.17;;;;;;;-3.46;100.00;100158.41;1799970;79;20960;-75
2021/03/13 05:35:16;;;;;;;9.43;5.17;;;;;;;-3.43;100.00;100166.19;1800137;79;20987;-75
2021/03/13 05:37:44;;;;;;;7.10;4.77;;;;;;;-3.39;100.00;100162.91;1800290;79;20931;-75
2021/03/13 05:40:13;;;;;;;11.77;6.00;;;;;;;-3.36;100.00;100174.19;1800174;79;21600;-75
2021/03/13 05:42:42;;;;;;;10.63;5.27;;;;;;;-3.35;100.00;100182.48;1808603;78;22468;-75
2021/03/13 05:45:10;;;;;;;9.50;5.20;;;;;;;-3.34;100.00;100178.08;1824334;78;21020;-74
2021/03/13 05:50:11;;;;;;;8.73;4.67;;;;;;;-3.29;100.00;100182.19;1701661;83;21238;-75
2021/03/13 05:52:40;;;;;;;6.13;3.97;;;;;;;-3.25;100.00;100180.23;1694930;82;21606;-74
2021/03/13 05:55:09;;;;;;;7.30;4.50;;;;;;;-3.20;100.00;100179.53;1732632;82;21194;-76
2021/03/13 05:57:38;;;;;;;6.47;4.57;;;;;;;-3.16;100.00;100181.08;1717389;83;21780;-74
2021/03/13 06:00:07;;;;;;;10.60;4.93;;;;;;;-3.12;100.00;100185.27;1732479;82;21061;-74
2021/03/13 06:02:41;;;;;;;5.77;3.87;;;;;;;-3.11;100.00;100186.98;1717605;83;21033;-75
2021/03/13 06:05:10;;;;;;;6.20;4.20;;;;;;;-3.07;100.00;100192.48;1708575;82;21125;-73
2021/03/13 06:07:41;;;;;;;9.23;5.23;;;;;;;-3.01;100.00;100190.02;1717401;83;21363;-74
2021/03/13 06:10:14;;;;;;;8.13;4.77;;;;;;;-2.97;100.00;100193.35;1732662;82;21064;-74
2021/03/13 06:12:50;;;;;;;9.30;5.50;;;;;;;-2.91;100.00;100186.40;1845902;76;25107;-74
2021/03/13 06:15:20;;;;;;;10.30;5.93;;;;;;;-2.92;100.00;100198.78;1815837;79;20932;-74
2021/03/13 06:17:54;;;;;;;10.93;5.53;;;;;;;-2.90;100.00;100206.17;1815745;79;21188;-73
2021/03/13 06:20:38;;;;;;;11.77;5.83;;;;;;;-2.88;100.00;100213.55;1813110;79;21377;-75
2021/03/13 06:23:13;;;;;;;11.47;6.33;;;;;;;-2.84;100.00;100211.59;1784001;79;21039;-74
2021/03/13 06:25:42;;;;;;;9.87;6.07;;;;;;;-2.79;100.00;100221.47;1783635;80;20984;-73
2021/03/13 06:28:19;;;;;;;12.97;6.17;;;;;;;-2.75;100.00;100209.78;1783623;79;20968;-75
2021/03/13 06:30:50;;;;;;;10.40;6.13;;;;;;;-2.72;100.00;100214.07;1784662;78;22070;-74
2021/03/13 06:33:26;;;;;;;12.03;5.23;;;;;;;-2.71;100.00;100220.61;1815748;79;21074;-75
2021/03/13 06:35:58;;;;;;;8.03;5.23;;;;;;;-2.69;100.00;100223.17;1746591;82;21617;-75
2021/03/13 06:38:28;;;;;;;15.53;6.43;;;;;;;-2.68;100.00;100221.74;1746776;82;21096;-77
2021/03/13 06:41:16;;;;;;;6.33;4.60;;;;;;;-2.65;100.00;100207.98;1747156;82;21052;-75
2021/03/13 06:43:53;;;;;;;11.13;5.53;;;;;;;-2.57;100.00;100217.19;1846370;76;25117;-76
2021/03/13 06:46:22;;;;;;;5.97;3.90;;;;;;;-2.58;100.00;100231.87;1795780;79;20984;-75
2021/03/13 06:48:54;;;;;;;5.93;4.73;;;;;;;-2.54;100.00;100240.02;1783889;78;21181;-76
2021/03/13 06:51:37;;;;;;;7.22;5.28;;;;;;;-2.50;100.00;100226.55;1783668;80;20957;-75
2021/03/13 06:54:15;;;;;;;10.58;5.22;;;;;;;-2.47;100.00;100228.16;1783605;80;21029;-76
2021/03/13 06:57:00;;;;;;;9.93;4.93;;;;;;;-2.45;100.00;100226.27;1783554;80;21020;-75
2021/03/13 06:59:32;;;;;;;13.17;5.60;;;;;;;-2.41;100.00;100222.51;1783580;80;21016;-75
2021/03/13 07:02:07;;;;;;;6.80;5.10;;;;;;;-2.35;100.00;100222.67;1783772;80;21200;-76
2021/03/13 07:04:42;;;;;;;13.67;5.00;;;;;;;-2.31;100.00;100214.45;1792633;79;21000;-76
2021/03/13 07:07:29;;;;;;;12.67;5.63;;;;;;;-2.23;100.00;100219.34;1673491;84;21139;-75
2021/03/13 07:10:06;;;;;;;11.00;6.50;;;;;;;-2.16;100.00;100226.45;1835234;76;25511;-75
2021/03/13 07:12:41;;;;;;;7.20;4.63;;;;;;;-2.16;100.00;100231.75;1725575;82;21606;-75
2021/03/13 07:15:16;;;;;;;8.73;4.90;;;;;;;-2.11;100.00;100236.33;1742105;82;21208;-75
2021/03/13 07:17:54;;;;;;;11.67;5.57;;;;;;;-2.07;100.00;100239.22;1749020;81;20993;-74
2021/03/13 07:20:25;;;;;;;11.53;6.53;;;;;;;-2.02;100.00;100216.42;1747744;81;21372;-78
2021/03/13 07:23:03;;;;;;;10.73;5.37;;;;;;;-1.98;100.00;100220.14;1719898;82;21048;-77
2021/03/13 07:25:39;;;;;;;9.90;4.97;;;;;;;-1.89;100.00;100233.34;1843426;76;26078;-75
2021/03/13 07:28:07;;;;;;;10.77;5.13;;;;;;;-1.84;100.00;100235.72;1803764;79;20934;-78
2021/03/13 07:30:37;;;;;;;5.40;3.77;;;;;;;-1.76;100.00;100236.15;1803955;79;21292;-78
2021/03/13 07:33:10;;;;;;;6.00;4.13;;;;;;;-1.70;100.00;100241.09;1804035;79;20925;-78
2021/03/13 07:35:42;;;;;;;5.23;4.17;;;;;;;-1.64;100.00;100246.05;1701117;84;21055;-76
2021/03/13 07:38:12;;;;;;;9.90;4.83;;;;;;;-1.59;100.00;100251.95;1731721;82;21115;-78
2021/03/13 07:40:44;;;;;;;7.03;4.53;;;;;;;-1.54;100.00;100244.59;1688955;84;21402;-74
2021/03/13 07:43:14;;;;;;;;;;;;;;;-1.50;100.00;100245.27;1683960;84;21434;-75
2021/03/13 07:45:42;;;;;;;10.43;5.43;;;;;;;-1.45;100.00;100250.28;1698529;84;20525;-75
2021/03/13 07:48:11;;;;;;;10.63;5.73;;;;;;;-1.44;100.00;100239.58;1687916;84;21085;-75
2021/03/13 07:50:41;;;;;;;11.03;5.50;;;;;;;-1.41;100.00;100239.89;1704911;84;21064;-76
2021/03/13 07:53:09;;;;;;;10.83;6.03;;;;;;;-1.37;100.00;100238.28;1704925;84;21129;-75
2021/03/13 07:55:37;;;;;;;11.37;5.27;;;;;;;-1.28;100.00;100236.05;1675874;84;22069;-76
2021/03/13 07:58:08;;;;;;;9.17;4.90;;;;;;;-1.26;100.00;100245.61;1705832;84;21436;-75
2021/03/13 08:00:46;;;;;;;7.23;5.10;;;;;;;-1.23;100.00;100237.47;1677056;85;21571;-78
2021/03/13 08:03:37;;;;;;;11.90;5.43;;;;;;;-1.20;100.00;100229.34;1677662;85;21079;-77
2021/03/13 08:06:11;;;;;;;11.50;5.13;;;;;;;-1.17;100.00;100227.84;1667638;86;21144;-75
2021/03/13 08:08:46;;;;;;;16.93;7.17;;;;;;;-1.09;100.00;100222.06;1709583;83;21165;-76
2021/03/13 08:11:19;;;;;;;10.67;5.83;;;;;;;-1.03;100.00;100232.77;1671654;85;21067;-76
2021/03/13 08:13:52;;;;;;;14.07;5.73;;;;;;;-0.94;100.00;100226.05;1703066;84;21117;-78
2021/03/13 08:16:38;;;;;;;8.00;4.63;;;;;;;-0.88;100.00;100230.53;1693324;84;21307;-78
2021/03/13 08:19:28;;;;;;;9.20;5.07;;;;;;;-0.83;100.00;100227.13;1677488;85;21002;-79
2021/03/13 08:22:12;;;;;;;7.37;4.90;;;;;;;-0.81;100.00;100231.02;1674641;84;21390;-80
2021/03/13 08:24:51;;;;;;;13.47;6.40;;;;;;;-0.72;100.00;100226.46;1686066;84;21399;-80
2021/03/13 08:27:39;;;;;;;15.17;5.93;;;;;;;-0.65;100.00;100225.13;1653022;87;21012;-81
2021/03/13 08:30:23;;;;;;;13.03;5.90;;;;;;;-0.47;100.00;100224.46;1809558;77;26609;-79
2021/03/13 08:33:06;;;;;;;12.07;5.93;;;;;;;-0.44;100.00;100234.91;1770741;80;20970;-81
2021/03/13 08:35:43;;;;;;;12.87;5.93;;;;;;;-0.43;100.00;100219.80;1721232;83;21216;-79
2021/03/13 08:38:12;;;;;;;15.80;6.80;;;;;;;-0.36;100.00;100221.61;1724308;83;21533;-81
2021/03/13 08:40:52;;;;;;;12.20;5.93;;;;;;;-0.31;100.00;100209.73;1724778;83;21047;-84
2021/03/13 08:43:40;;;;;;;12.43;6.00;;;;;;;-0.22;100.00;100205.64;1715324;83;20998;-76
2021/03/13 08:46:50;;;;;;;8.20;5.10;;;;;;;-0.19;100.00;100208.11;1722992;83;21033;-77
2021/03/13 08:49:31;;;;;;;11.77;6.00;;;;;;;-0.20;100.00;100203.25;1858297;76;27124;-81
2021/03/13 08:52:11;;;;;;;7.97;4.83;;;;;;;-0.26;100.00;100210.78;1832815;78;20980;-79
2021/03/13 08:54:44;;;;;;;9.07;5.80;;;;;;;-0.28;100.00;100214.02;1839970;77;21340;-80
2021/03/13 08:57:25;;;;;;;8.97;5.20;;;;;;;-0.33;100.00;100206.33;1849340;77;20998;-80
2021/03/13 08:59:59;;;;;;;12.07;5.30;;;;;;;-0.34;100.00;100211.73;1709585;82;23924;-81
2021/03/13 09:02:38;;;;;;;12.70;6.42;;;;;;;-0.34;100.00;100207.75;1716988;83;21453;-79
2021/03/13 09:05:15;;;;;;;11.33;4.63;;;;;;;-0.34;100.00;100218.38;1679328;84;21082;-79
2021/03/13 09:07:48;;;;;;;9.83;4.63;;;;;;;-0.31;100.00;100216.86;1654831;86;21291;-78
2021/03/13 09:10:17;;;;;;;9.88;6.00;;;;;;;-0.34;100.00;100215.72;1655267;85;20999;-80
2021/03/13 09:12:46;;;;;;;10.63;5.87;;;;;;;-0.38;100.00;100204.43;1681926;85;21023;-82
2021/03/13 09:15:17;;;;;;;7.43;4.80;;;;;;;-0.38;100.00;100201.77;1695246;83;20982;-82
2021/03/13 09:17:45;;;;;;;12.73;6.53;;;;;;;-0.37;100.00;100215.91;1689199;83;21018;-81
2021/03/13 09:20:17;;;;;;;11.70;6.43;;;;;;;-0.36;100.00;100224.27;1719114;83;22234;-80
2021/03/13 09:22:48;;;;;;;16.27;6.95;;;;;;;-0.37;100.00;100220.77;1720233;83;20994;-79
2021/03/13 09:25:20;;;;;;;13.87;6.60;;;;;;;-0.40;100.00;100227.59;1696126;83;20923;-75
2021/03/13 09:27:50;;;;;;;11.47;5.97;;;;;;;-0.39;100.00;100234.59;1718929;83;21065;-75
2021/03/13 09:30:23;;;;;;;12.07;6.33;;;;;;;-0.38;100.00;100234.98;1720483;83;20972;-78
2021/03/13 09:43:23;;;;;;;4.77;3.50;;;;;;;-0.25;100.00;100220.44;1895144;75;27064;-76
2021/03/13 09:45:51;;;;;;;7.73;4.57;;;;;;;-0.22;100.00;100225.09;1859158;77;20968;-75
2021/03/13 09:48:19;;;;;;;9.80;4.67;;;;;;;-0.11;100.00;100220.41;1854880;77;21796;-75
2021/03/13 09:50:48;;;;;;;8.57;5.33;;;;;;;-0.02;100.00;100218.52;1859957;77;20978;-79
2021/03/13 09:53:18;;;;;;;7.83;4.97;;;;;;;0.05;100.00;100216.77;1818031;78;20985;-79
2021/03/13 09:55:50;;;;;;;4.85;3.25;;;;;;;0.13;100.00;100215.81;1810098;78;20937;-76
2021/03/13 09:58:19;;;;;;;7.43;4.13;;;;;;;0.22;100.00;100208.55;1817626;78;20981;-79
2021/03/13 10:00:47;;;;;;;7.27;4.27;;;;;;;0.32;100.00;100206.13;1793600;79;21275;-74
2021/03/13 10:03:17;;;;;;;8.10;4.10;;;;;;;0.43;100.00;100208.11;1793663;79;21009;-75
2021/03/13 10:05:56;;;;;;;8.93;4.80;;;;;;;0.55;100.00;100205.95;1792441;79;21010;-77
2021/03/13 10:08:38;;;;;;;6.87;3.47;;;;;;;0.70;100.00;100196.07;1813748;78;21229;-75
2021/03/13 10:11:06;;;;;;;6.10;4.10;;;;;;;0.89;100.00;100203.66;1773949;80;21068;-75
2021/03/13 10:13:36;;;;;;;8.57;4.40;;;;;;;1.08;100.00;100200.11;1786823;80;21218;-76
2021/03/13 10:16:04;;;;;;;9.47;4.30;;;;;;;1.31;100.00;100193.17;1770868;80;21056;-75
2021/03/13 10:18:42;;;;;;;10.57;4.40;;;;;;;1.61;100.00;100185.30;1811320;78;21032;-75
2021/03/13 10:21:11;;;;;;;5.03;4.00;;;;;;;1.86;100.00;100183.49;1784440;80;21470;-74
2021/03/13 10:23:39;;;;;;;9.20;4.53;;;;;;;2.00;100.00;100180.70;1795011;80;21119;-73
2021/03/13 10:26:19;;;;;;;12.50;4.63;;;;;;;2.03;100.00;100176.45;1807534;78;21649;-75
2021/03/13 10:29:09;;;;;;;8.50;4.23;;;;;;;2.06;100.00;100178.05;1890600;74;26699;-73
2021/03/13 10:31:44;;;;;;;7.37;4.37;;;;;;;2.11;100.00;100183.03;1860931;77;21032;-74
2021/03/13 10:34:14;;;;;;;5.37;4.13;;;;;;;2.14;100.00;100172.98;1864164;77;21405;-75
2021/03/13 10:36:45;;;;;;;9.97;5.10;;;;;;;2.18;100.00;100179.81;1825666;78;20922;-75
2021/03/13 10:39:13;;;;;;;6.80;4.60;;;;;;;2.12;100.00;100172.25;1760397;80;21050;-75
2021/03/13 10:41:56;;;;;;;9.33;4.87;;;;;;;2.05;100.00;100179.00;1761118;81;21021;-75
2021/03/13 10:44:22;;;;;;;9.23;4.87;;;;;;;1.96;100.00;100177.02;1760841;81;20996;-76
2021/03/13 10:46:50;;;;;;;6.13;3.83;;;;;;;1.94;100.00;100181.12;1760565;81;21367;-76
2021/03/13 10:49:27;;;;;;;8.37;4.83;;;;;;;2.01;100.00;100176.20;1760594;81;20948;-76
2021/03/13 10:52:03;;;;;;;11.93;5.47;;;;;;;2.12;100.00;100161.58;1875595;76;26613;-76
2021/03/13 10:54:33;;;;;;;12.13;4.90;;;;;;;2.13;100.00;100165.96;1851052;77;20906;-78
2021/03/13 10:57:07;;;;;;;7.47;4.17;;;;;;;2.17;100.00;100160.76;1828867;78;21802;-79
2021/03/13 10:59:38;;;;;;;8.70;4.73;;;;;;;2.20;100.00;100155.70;1829268;78;21005;-80
2021/03/13 11:02:06;;;;;;;9.83;4.40;;;;;;;2.16;100.00;100156.87;1830196;78;20987;-81
2021/03/13 11:04:38;;;;;;;9.43;5.03;;;;;;;2.02;100.00;100159.22;1829920;78;20989;-81
2021/03/13 11:07:07;;;;;;;11.43;5.57;;;;;;;1.93;100.00;100139.91;1833324;77;20971;-79
2021/03/13 11:09:37;;;;;;;8.80;4.97;;;;;;;1.90;100.00;100147.17;1828766;77;21803;-78
2021/03/13 11:12:06;;;;;;;10.10;5.50;;;;;;;1.90;100.00;100144.50;1828255;78;20993;-75
2021/03/13 11:14:34;;;;;;;14.47;5.93;;;;;;;1.93;100.00;100140.78;1828658;78;21017;-83
2021/03/13 11:17:03;;;;;;;10.43;5.57;;;;;;;1.92;100.00;100140.89;1797588;78;21029;-81
2021/03/13 11:19:32;;;;;;;8.57;4.10;;;;;;;1.86;100.00;100139.03;1829211;78;20909;-81
2021/03/13 11:22:00;;;;;;;8.23;3.97;;;;;;;1.87;100.00;100145.21;1829172;78;21323;-81
2021/03/13 11:24:29;;;;;;;6.00;3.60;;;;;;;1.91;100.00;100138.67;1829102;78;20985;-82
2021/03/13 11:26:58;;;;;;;8.10;4.43;;;;;;;2.00;100.00;100131.81;1828555;78;21005;-80
2021/03/13 11:29:26;;;;;;;10.03;5.53;;;;;;;2.05;100.00;100130.99;1827899;77;21057;-79
2021/03/13 11:31:54;;;;;;;9.03;4.60;;;;;;;2.09;100.00;100133.83;1791119;79;21560;-78
2021/03/13 11:34:23;;;;;;;10.20;4.50;;;;;;;2.14;100.00;100135.63;1823784;78;21148;-80
2021/03/13 11:36:51;;;;;;;9.33;3.93;;;;;;;2.21;100.00;100132.03;1790884;80;20948;-80
2021/03/13 11:42:07;;;;;;;13.93;5.83;;;;;;;2.44;100.00;100129.83;1830576;76;27978;-80
2021/03/13 11:44:36;;;;;;;8.50;4.30;;;;;;;2.51;100.00;100130.69;1803042;78;20982;-80
2021/03/13 11:47:04;;;;;;;13.40;4.33;;;;;;;2.60;100.00;100123.30;1838787;78;21377;-80
2021/03/13 11:49:33;;;;;;;10.93;5.30;;;;;;;2.68;100.00;100128.91;1815581;79;20986;-79
2021/03/13 11:52:01;;;;;;;7.50;4.13;;;;;;;2.72;100.00;100123.69;1838717;78;21546;-80
2021/03/13 11:54:29;;;;;;;11.53;5.57;;;;;;;2.77;100.00;100128.69;1817318;79;21430;-81
2021/03/13 11:56:57;;;;;;;11.33;4.73;;;;;;;2.80;100.00;100128.45;1839157;78;20882;-79